createdAt,value
2018-12-25T00:00:47.156Z,8.37
2018-12-25T00:03:18.633Z,8.30
2018-12-25T00:05:48.128Z,10.33
2018-12-25T00:08:17.676Z,8.80
2018-12-25T00:10:48.235Z,6.90
2018-12-25T00:13:18.780Z,8.93
2018-12-25T00:15:48.289Z,8.93
2018-12-25T00:18:18.126Z,11.37
2018-12-25T00:20:47.450Z,8.00
2018-12-25T00:23:19.028Z,5.97
2018-12-25T00:25:48.447Z,7.40
2018-12-25T00:28:23.956Z,7.63
2018-12-25T00:30:53.439Z,10.07
2018-12-25T00:33:33.126Z,11.03
2018-12-25T00:36:07.332Z,7.73
2018-12-25T00:38:43.645Z,6.30
2018-12-25T00:41:17.253Z,9.23
2018-12-25T00:43:48.838Z,9.43
2018-12-25T00:46:19.302Z,11.30
2018-12-25T00:48:50.800Z,6.80
2018-12-25T00:51:23.295Z,7.43
2018-12-25T00:53:52.816Z,7.20
2018-12-25T00:56:23.236Z,6.37
2018-12-25T00:58:53.686Z,7.10
2018-12-25T01:01:24.183Z,7.97
2018-12-25T01:03:54.689Z,8.60
2018-12-25T01:06:24.177Z,7.63
2018-12-25T01:08:59.865Z,7.53
2018-12-25T01:11:29.333Z,8.80
2018-12-25T01:13:58.834Z,7.47
2018-12-25T01:16:29.331Z,8.43
2018-12-25T01:18:58.868Z,7.03
2018-12-25T01:21:36.484Z,6.77
2018-12-25T01:24:20.127Z,7.67
2018-12-25T01:26:49.592Z,8.20
2018-12-25T01:29:20.048Z,7.63
2018-12-25T01:31:56.487Z,7.70
2018-12-25T01:34:25.945Z,9.97
2018-12-25T01:36:57.452Z,9.30
2018-12-25T01:39:29.987Z,10.90
2018-12-25T01:42:00.438Z,8.10
2018-12-25T01:44:34.115Z,8.50
2018-12-25T01:47:05.685Z,7.10
2018-12-25T01:49:35.134Z,9.27
2018-12-25T01:52:05.653Z,8.73
2018-12-25T01:54:36.162Z,8.53
2018-12-25T01:57:05.644Z,9.20
2018-12-25T01:59:36.114Z,10.17
2018-12-25T02:02:07.579Z,8.60
2018-12-25T02:04:41.117Z,8.23
2018-12-25T02:07:12.548Z,8.43
2018-12-25T02:09:43.984Z,13.27
2018-12-25T02:12:13.535Z,10.10
2018-12-25T02:14:43.001Z,9.43
2018-12-25T02:17:27.609Z,8.53
2018-12-25T02:19:57.021Z,10.00
2018-12-25T02:22:26.572Z,9.70
2018-12-25T02:25:13.313Z,8.77
2018-12-25T02:27:42.768Z,11.03
2018-12-25T02:30:12.309Z,9.73
2018-12-25T02:32:41.720Z,9.40
2018-12-25T02:35:11.237Z,11.07
2018-12-25T02:37:41.680Z,8.83
2018-12-25T02:40:16.893Z,9.73
2018-12-25T02:42:55.623Z,9.77
2018-12-25T02:45:26.161Z,7.43
2018-12-25T02:47:56.644Z,8.53
2018-12-25T02:50:28.132Z,8.97
2018-12-25T02:52:57.652Z,11.40
2018-12-25T02:55:27.113Z,8.93
2018-12-25T02:57:56.570Z,10.80
2018-12-25T03:00:28.892Z,9.53
2018-12-25T03:02:58.444Z,9.40
2018-12-25T03:05:27.957Z,9.03
2018-12-25T03:07:59.463Z,10.43
2018-12-25T03:10:28.948Z,14.57
2018-12-25T03:13:00.748Z,7.47
2018-12-25T03:15:36.283Z,9.97
2018-12-25T03:18:05.742Z,12.33
2018-12-25T03:20:54.313Z,9.27
2018-12-25T03:23:24.812Z,9.93
2018-12-25T03:25:55.251Z,9.10
2018-12-25T03:28:24.665Z,9.33
2018-12-25T03:30:54.163Z,9.20
2018-12-25T03:33:23.618Z,8.53
2018-12-25T03:35:53.088Z,8.83
2018-12-25T03:38:22.557Z,8.37
2018-12-25T03:40:55.132Z,10.17
2018-12-25T03:43:28.760Z,12.40
2018-12-25T03:45:58.211Z,9.87
2018-12-25T03:48:27.658Z,10.90
2018-12-25T03:50:57.139Z,7.83
2018-12-25T03:53:26.599Z,11.63
2018-12-25T03:56:04.881Z,9.10
2018-12-25T03:58:35.290Z,9.00
2018-12-25T04:01:06.772Z,8.43
2018-12-25T04:03:36.303Z,11.10
2018-12-25T04:06:05.780Z,8.17
2018-12-25T04:08:43.292Z,9.53
2018-12-25T04:11:14.693Z,9.50
2018-12-25T04:13:45.163Z,10.07
2018-12-25T04:16:14.674Z,10.77
2018-12-25T04:18:44.070Z,7.93
2018-12-25T04:21:14.524Z,8.93
2018-12-25T04:23:43.944Z,8.00
2018-12-25T04:26:13.477Z,9.37
2018-12-25T04:28:45.868Z,9.70
2018-12-25T04:31:16.258Z,9.73
2018-12-25T04:33:47.797Z,10.87
2018-12-25T04:36:18.335Z,9.47
2018-12-25T04:38:47.849Z,9.43
2018-12-25T04:41:17.358Z,13.07
2018-12-25T04:43:47.879Z,11.47
2018-12-25T04:46:17.406Z,9.97
2018-12-25T04:48:46.889Z,9.60
2018-12-25T04:51:22.358Z,10.53
2018-12-25T04:53:55.878Z,11.73
2018-12-25T04:56:37.702Z,8.70
2018-12-25T04:59:08.125Z,12.80
2018-12-25T05:01:39.649Z,10.73
2018-12-25T05:04:26.333Z,9.20
2018-12-25T05:06:56.766Z,9.67
2018-12-25T05:09:36.101Z,10.27
2018-12-25T05:12:05.632Z,10.73
2018-12-25T05:14:36.085Z,10.13
2018-12-25T05:17:12.560Z,10.07
2018-12-25T05:19:43.977Z,11.70
2018-12-25T05:22:20.359Z,9.70
2018-12-25T05:24:51.818Z,13.10
2018-12-25T05:27:22.197Z,11.43
2018-12-25T05:29:52.131Z,12.17
2018-12-25T05:32:22.710Z,11.40
2018-12-25T05:34:53.301Z,9.93
2018-12-25T05:37:24.834Z,10.40
2018-12-25T05:40:01.134Z,10.67
2018-12-25T05:42:30.598Z,8.83
2018-12-25T05:45:06.902Z,9.60
2018-12-25T05:47:37.379Z,11.33
2018-12-25T05:50:07.094Z,11.20
2018-12-25T05:52:38.589Z,11.07
2018-12-25T05:55:08.094Z,10.73
2018-12-25T05:57:38.540Z,10.50
2018-12-25T06:00:13.262Z,10.57
2018-12-25T06:02:43.684Z,9.47
2018-12-25T06:05:13.182Z,10.77
2018-12-25T06:07:56.584Z,10.33
2018-12-25T06:10:26.004Z,15.33
2018-12-25T06:12:55.483Z,10.63
2018-12-25T06:15:25.051Z,10.40
2018-12-25T06:17:56.451Z,11.13
2018-12-25T06:20:25.907Z,9.07
2018-12-25T06:22:59.555Z,10.20
2018-12-25T06:25:31.160Z,9.43
2018-12-25T06:28:01.622Z,11.00
2018-12-25T06:30:31.072Z,10.57
2018-12-25T06:33:03.673Z,10.03
2018-12-25T06:35:35.192Z,10.53
2018-12-25T06:38:10.652Z,10.97
2018-12-25T06:40:50.460Z,10.17
2018-12-25T06:43:20.965Z,10.50
2018-12-25T06:46:03.055Z,12.73
2018-12-25T06:48:41.551Z,11.77
2018-12-25T06:51:12.047Z,11.93
2018-12-25T06:53:42.485Z,10.40
2018-12-25T06:56:13.921Z,11.07
2018-12-25T06:58:44.371Z,10.80
2018-12-25T07:01:21.173Z,10.33
2018-12-25T07:03:50.671Z,11.07
2018-12-25T07:06:20.131Z,11.90
2018-12-25T07:08:56.676Z,13.33
2018-12-25T07:11:26.176Z,11.70
2018-12-25T07:13:55.622Z,11.73
2018-12-25T07:16:35.004Z,11.63
2018-12-25T07:19:06.438Z,11.73
2018-12-25T07:21:35.981Z,12.60
2018-12-25T07:24:05.490Z,10.37
2018-12-25T07:26:41.808Z,12.00
2018-12-25T07:29:16.450Z,14.03
2018-12-25T07:31:45.862Z,12.43
2018-12-25T07:34:15.326Z,11.57
2018-12-25T07:37:02.421Z,11.77
2018-12-25T07:39:32.980Z,11.00
2018-12-25T07:42:02.478Z,11.10
2018-12-25T07:44:31.986Z,18.17
2018-12-25T07:47:01.428Z,14.47
2018-12-25T07:49:31.941Z,9.97
2018-12-25T07:52:01.364Z,14.00
2018-12-25T07:54:30.834Z,12.90
2018-12-25T07:57:03.908Z,13.03
2018-12-25T07:59:35.470Z,11.20
2018-12-25T08:02:10.713Z,11.70
2018-12-25T08:04:47.932Z,13.10
2018-12-25T08:07:19.362Z,12.00
2018-12-25T08:09:51.788Z,13.67
2018-12-25T08:12:27.267Z,12.43
2018-12-25T08:14:57.815Z,14.03
2018-12-25T08:17:27.283Z,11.60
2018-12-25T08:19:57.742Z,11.53
2018-12-25T08:22:27.253Z,11.73
2018-12-25T08:24:59.531Z,12.50
2018-12-25T08:27:29.961Z,11.73
2018-12-25T08:29:59.577Z,11.90
2018-12-25T08:32:28.973Z,15.37
2018-12-25T08:35:00.638Z,16.47
2018-12-25T08:37:30.076Z,15.37
2018-12-25T08:40:01.637Z,15.03
2018-12-25T08:42:33.294Z,12.97
2018-12-25T08:45:03.870Z,14.50
2018-12-25T08:47:33.415Z,16.07
2018-12-25T08:50:02.943Z,13.17
2018-12-25T08:52:40.619Z,14.20
2018-12-25T08:55:12.156Z,15.97
2018-12-25T08:57:49.613Z,18.20
2018-12-25T09:00:20.136Z,15.83
2018-12-25T09:02:49.645Z,14.73
2018-12-25T09:05:22.470Z,15.63
2018-12-25T09:08:00.133Z,36.07
2018-12-25T09:10:34.745Z,15.17
2018-12-25T09:13:04.870Z,14.47
2018-12-25T09:15:36.425Z,15.63
2018-12-25T09:18:08.038Z,15.20
2018-12-25T09:20:39.594Z,13.97
2018-12-25T09:23:11.128Z,13.70
2018-12-25T09:25:41.690Z,15.70
2018-12-25T09:28:11.204Z,15.70
2018-12-25T09:30:40.677Z,13.23
2018-12-25T09:33:11.512Z,14.03
2018-12-25T09:35:41.030Z,14.77
2018-12-25T09:38:10.549Z,14.33
2018-12-25T09:40:40.092Z,16.10
2018-12-25T09:43:09.703Z,16.57
2018-12-25T09:45:40.154Z,17.97
2018-12-25T09:48:13.376Z,15.50
2018-12-25T09:50:46.649Z,17.00
2018-12-25T09:53:16.181Z,15.63
2018-12-25T09:55:45.675Z,17.37
2018-12-25T09:58:15.201Z,14.67
2018-12-25T10:00:45.625Z,13.07
2018-12-25T10:03:16.109Z,14.37
2018-12-25T10:05:48.738Z,14.83
2018-12-25T10:08:18.221Z,14.17
2018-12-25T10:10:47.717Z,13.83
2018-12-25T10:13:25.457Z,20.03
2018-12-25T10:15:56.001Z,16.10
2018-12-25T10:18:26.566Z,17.37
2018-12-25T10:20:56.005Z,15.60
2018-12-25T10:23:27.495Z,17.53
2018-12-25T10:26:04.001Z,15.13
2018-12-25T10:28:33.600Z,15.27
2018-12-25T10:31:03.149Z,15.23
2018-12-25T10:33:32.574Z,17.03
2018-12-25T10:36:02.100Z,17.00
2018-12-25T10:38:32.563Z,18.47
2018-12-25T10:41:04.081Z,15.03
2018-12-25T10:43:34.902Z,15.60
2018-12-25T10:46:04.442Z,15.40
2018-12-25T10:48:33.935Z,17.50
2018-12-25T10:51:13.291Z,15.70
2018-12-25T10:53:43.815Z,17.97
2018-12-25T10:56:24.499Z,15.00
2018-12-25T10:58:59.749Z,17.17
2018-12-25T11:01:32.660Z,18.87
2018-12-25T11:04:02.227Z,19.13
2018-12-25T11:06:31.744Z,17.13
2018-12-25T11:09:01.182Z,17.47
2018-12-25T11:11:32.828Z,17.73
2018-12-25T11:14:02.531Z,15.67
2018-12-25T11:16:33.946Z,19.30
2018-12-25T11:19:06.172Z,16.93
2018-12-25T11:21:36.060Z,16.93
2018-12-25T11:24:08.664Z,18.17
2018-12-25T11:26:43.959Z,18.27
2018-12-25T11:29:13.657Z,16.67
2018-12-25T11:31:43.604Z,18.23
2018-12-25T11:34:15.627Z,16.20
2018-12-25T11:36:45.081Z,18.17
2018-12-25T11:39:14.534Z,14.57
2018-12-25T11:41:45.026Z,16.27
2018-12-25T11:44:14.454Z,16.40
2018-12-25T11:46:43.952Z,16.80
2018-12-25T11:49:23.792Z,18.77
2018-12-25T11:51:53.261Z,13.90
2018-12-25T11:54:22.697Z,14.47
2018-12-25T11:56:52.110Z,17.53
2018-12-25T11:59:21.556Z,15.00
2018-12-25T12:01:50.972Z,16.73
2018-12-25T12:04:20.360Z,13.67
2018-12-25T12:06:49.815Z,13.60
2018-12-25T12:09:19.235Z,14.80
2018-12-25T12:11:48.697Z,15.47
2018-12-25T12:14:18.171Z,13.80
2018-12-25T12:16:50.659Z,13.90
2018-12-25T12:19:20.074Z,14.07
2018-12-25T12:21:49.562Z,14.13
2018-12-25T12:24:18.996Z,14.27
2018-12-25T12:26:48.457Z,13.50
2018-12-25T12:29:17.897Z,11.43
2018-12-25T12:31:47.338Z,15.37
2018-12-25T12:34:16.789Z,13.63
2018-12-25T12:36:46.239Z,15.73
2018-12-25T12:39:16.798Z,15.43
2018-12-25T12:41:46.219Z,12.53
2018-12-25T12:44:15.673Z,15.43
2018-12-25T12:46:45.100Z,14.00
2018-12-25T12:49:14.611Z,16.87
2018-12-25T12:51:44.194Z,14.33
2018-12-25T12:54:13.641Z,17.53
2018-12-25T12:56:43.102Z,14.50
2018-12-25T12:59:12.500Z,16.87
2018-12-25T13:01:44.147Z,15.40
2018-12-25T13:04:14.669Z,13.80
2018-12-25T13:06:44.087Z,12.20
2018-12-25T13:09:14.097Z,15.47
2018-12-25T13:11:43.484Z,14.13
2018-12-25T13:14:14.014Z,11.57
2018-12-25T13:16:43.401Z,13.77
2018-12-25T13:19:12.873Z,13.67
2018-12-25T13:21:42.338Z,11.90
2018-12-25T13:24:11.788Z,14.70
2018-12-25T13:26:41.209Z,12.80
2018-12-25T13:29:10.659Z,14.47
2018-12-25T13:31:44.201Z,13.50
2018-12-25T13:34:13.667Z,16.57
2018-12-25T13:36:44.200Z,16.50
2018-12-25T13:39:13.643Z,19.57
2018-12-25T13:41:43.065Z,14.43
2018-12-25T13:44:12.516Z,14.20
2018-12-25T13:46:41.952Z,14.57
2018-12-25T13:49:11.414Z,17.77
2018-12-25T13:51:41.353Z,16.23
2018-12-25T13:54:11.004Z,16.80
2018-12-25T13:56:40.428Z,14.63
2018-12-25T13:59:09.847Z,16.67
2018-12-25T14:01:41.387Z,14.43
2018-12-25T14:04:10.840Z,15.40
2018-12-25T14:06:40.381Z,15.40
2018-12-25T14:09:09.972Z,15.20
2018-12-25T14:11:39.372Z,14.20
2018-12-25T14:14:08.827Z,15.00
2018-12-25T14:16:38.239Z,13.50
2018-12-25T14:19:07.741Z,14.50
2018-12-25T14:21:37.510Z,13.63
2018-12-25T14:24:07.176Z,14.43
2018-12-25T14:26:36.617Z,14.50
2018-12-25T14:29:06.077Z,15.03
2018-12-25T14:31:35.480Z,13.93
2018-12-25T14:34:04.857Z,14.17
2018-12-25T14:36:34.335Z,12.77
2018-12-25T14:39:05.328Z,15.13
2018-12-25T14:41:34.783Z,14.03
2018-12-25T14:44:05.370Z,15.97
2018-12-25T14:46:35.096Z,14.20
2018-12-25T14:49:04.581Z,19.50
2018-12-25T14:51:34.004Z,15.80
2018-12-25T14:54:03.454Z,15.87
2018-12-25T14:56:32.887Z,16.73
2018-12-25T14:59:02.311Z,16.43
2018-12-25T15:01:32.745Z,17.97
2018-12-25T15:04:03.229Z,16.67
2018-12-25T15:06:32.665Z,15.87
2018-12-25T15:09:02.152Z,16.13
2018-12-25T15:11:31.575Z,16.40
2018-12-25T15:14:01.044Z,16.57
2018-12-25T15:16:30.484Z,16.93
2018-12-25T15:18:59.892Z,15.97
2018-12-25T15:21:35.333Z,14.57
2018-12-25T15:24:04.801Z,15.93
2018-12-25T15:26:34.208Z,17.87
2018-12-25T15:29:03.648Z,15.93
2018-12-25T15:31:33.082Z,14.93
2018-12-25T15:34:02.545Z,18.00
2018-12-25T15:36:31.984Z,15.70
2018-12-25T15:39:01.424Z,17.97
2018-12-25T15:41:30.818Z,17.63
2018-12-25T15:44:00.184Z,17.37
2018-12-25T15:46:29.651Z,19.90
2018-12-25T15:48:59.058Z,15.30
2018-12-25T15:51:28.499Z,15.47
2018-12-25T15:53:57.922Z,17.10
2018-12-25T15:56:27.279Z,17.00
2018-12-25T15:58:56.682Z,17.93
2018-12-25T16:01:26.116Z,16.37
2018-12-25T16:03:55.528Z,16.63
2018-12-25T16:06:24.967Z,17.10
2018-12-25T16:08:54.379Z,20.43
2018-12-25T16:11:23.841Z,18.07
2018-12-25T16:13:53.297Z,17.37
2018-12-25T16:16:22.724Z,16.23
2018-12-25T16:18:52.161Z,17.73
2018-12-25T16:21:21.591Z,17.67
2018-12-25T16:23:51.034Z,18.67
2018-12-25T16:26:20.526Z,18.70
2018-12-25T16:28:49.937Z,16.27
2018-12-25T16:31:19.398Z,16.40
2018-12-25T16:33:48.802Z,18.47
2018-12-25T16:36:18.269Z,17.23
2018-12-25T16:38:47.701Z,21.47
2018-12-25T16:41:17.110Z,19.70
2018-12-25T16:43:46.545Z,20.40
2018-12-25T16:46:15.968Z,22.43
2018-12-25T16:48:45.388Z,21.07
2018-12-25T16:51:14.813Z,18.30
2018-12-25T16:53:44.276Z,18.60
2018-12-25T16:56:13.718Z,20.17
2018-12-25T16:58:43.131Z,19.80
2018-12-25T17:01:12.525Z,20.80
2018-12-25T17:03:41.910Z,18.13
2018-12-25T17:06:11.271Z,22.90
2018-12-25T17:08:41.662Z,20.40
2018-12-25T17:11:11.058Z,18.23
2018-12-25T17:13:40.519Z,17.63
2018-12-25T17:16:09.936Z,18.10
2018-12-25T17:18:39.359Z,19.43
2018-12-25T17:21:08.804Z,18.00
2018-12-25T17:23:38.178Z,20.60
2018-12-25T17:26:07.630Z,17.57
2018-12-25T17:28:37.048Z,18.47
2018-12-25T17:31:07.479Z,20.33
2018-12-25T17:33:36.903Z,18.70
2018-12-25T17:36:07.421Z,17.63
2018-12-25T17:38:36.855Z,19.10
2018-12-25T17:41:06.780Z,19.17
2018-12-25T17:43:36.222Z,22.23
2018-12-25T17:46:05.644Z,21.50
2018-12-25T17:48:35.053Z,21.40
2018-12-25T17:51:04.491Z,19.97
2018-12-25T17:53:33.905Z,21.37
2018-12-25T17:56:03.315Z,21.53
2018-12-25T17:58:34.737Z,21.77
2018-12-25T18:01:04.222Z,19.50
2018-12-25T18:03:33.697Z,19.10
2018-12-25T18:06:03.148Z,22.10
2018-12-25T18:08:32.595Z,20.90
2018-12-25T18:11:02.048Z,20.10
2018-12-25T18:13:31.496Z,21.10
2018-12-25T18:16:00.917Z,21.07
2018-12-25T18:18:30.356Z,19.33
2018-12-25T18:20:59.836Z,20.77
2018-12-25T18:23:29.276Z,18.83
2018-12-25T18:25:58.714Z,19.50
2018-12-25T18:28:31.136Z,20.53
2018-12-25T18:31:00.590Z,20.80
2018-12-25T18:33:30.106Z,20.47
2018-12-25T18:35:59.678Z,21.47
2018-12-25T18:38:29.141Z,19.43
2018-12-25T18:41:00.603Z,19.50
2018-12-25T18:43:30.145Z,27.60
2018-12-25T18:45:59.666Z,37.80
2018-12-25T18:48:29.182Z,19.60
2018-12-25T18:50:59.627Z,20.57
2018-12-25T18:53:29.108Z,25.10
2018-12-25T18:55:58.623Z,25.73
2018-12-25T18:58:30.124Z,18.63
2018-12-25T19:01:00.629Z,19.53
2018-12-25T19:03:31.081Z,20.50
2018-12-25T19:06:00.517Z,17.17
2018-12-25T19:08:29.985Z,20.53
2018-12-25T19:11:00.464Z,17.17
2018-12-25T19:13:39.084Z,20.83
2018-12-25T19:16:11.788Z,19.63
2018-12-25T19:18:42.315Z,19.93
2018-12-25T19:21:12.907Z,19.53
2018-12-25T19:23:57.886Z,20.87
2018-12-25T19:26:34.713Z,19.07
2018-12-25T19:29:06.346Z,19.47
2018-12-25T19:31:36.705Z,21.27
2018-12-25T19:34:10.980Z,17.97
2018-12-25T19:36:43.991Z,18.03
2018-12-25T19:39:13.404Z,19.90
2018-12-25T19:41:42.899Z,19.40
2018-12-25T19:44:12.397Z,19.53
2018-12-25T19:46:42.920Z,19.67
2018-12-25T19:49:14.445Z,23.17
2018-12-25T19:51:53.941Z,20.53
2018-12-25T19:54:44.545Z,21.43
2018-12-25T19:57:10.011Z,20.47
2018-12-25T19:59:39.411Z,21.97
2018-12-25T20:02:08.941Z,21.33
2018-12-25T20:05:24.640Z,19.63
2018-12-25T20:08:32.358Z,21.30
2018-12-25T20:11:51.888Z,22.33
2018-12-25T20:15:10.817Z,20.37
2018-12-25T20:18:15.932Z,22.77
2018-12-25T20:21:12.141Z,20.70
2018-12-25T20:24:24.283Z,24.13
2018-12-25T20:27:29.562Z,23.37
2018-12-25T20:30:50.268Z,21.10
2018-12-25T20:34:05.664Z,22.30
2018-12-25T20:37:12.877Z,22.17
2018-12-25T20:40:17.840Z,22.00
2018-12-25T20:43:30.241Z,21.20
2018-12-25T20:46:55.617Z,23.70
2018-12-25T20:50:12.418Z,24.00
2018-12-25T20:53:22.944Z,25.37
2018-12-25T20:56:41.265Z,23.47
2018-12-25T21:00:09.784Z,26.97
2018-12-25T21:03:17.389Z,22.67
2018-12-25T21:06:11.204Z,25.93
2018-12-25T21:09:23.219Z,22.90
2018-12-25T21:12:31.804Z,26.10
2018-12-25T21:15:45.794Z,22.67
2018-12-25T21:19:07.624Z,25.00
2018-12-25T21:22:19.107Z,23.73
2018-12-25T21:25:24.276Z,31.83
2018-12-25T21:27:52.085Z,25.73
2018-12-25T21:30:22.544Z,25.27
2018-12-25T21:32:55.102Z,23.80
2018-12-25T21:35:31.237Z,25.03
2018-12-25T21:38:01.285Z,26.80
2018-12-25T21:40:30.820Z,25.13
2018-12-25T21:43:00.564Z,25.63
2018-12-25T21:45:33.274Z,29.57
2018-12-25T21:48:05.881Z,26.70
2018-12-25T21:50:38.484Z,23.63
2018-12-25T21:53:10.274Z,28.97
2018-12-25T21:55:39.928Z,25.73
2018-12-25T21:58:17.664Z,26.67
2018-12-25T22:00:47.136Z,28.30
2018-12-25T22:03:17.103Z,26.40
2018-12-25T22:06:05.120Z,28.47
2018-12-25T22:08:36.704Z,26.87
2018-12-25T22:11:06.134Z,27.13
2018-12-25T22:13:37.697Z,30.77
2018-12-25T22:16:07.240Z,29.57
2018-12-25T22:18:37.828Z,27.73
2018-12-25T22:21:07.358Z,31.37
2018-12-25T22:23:38.932Z,46.60
2018-12-25T22:26:09.394Z,42.47
2018-12-25T22:28:40.731Z,53.77
2018-12-25T22:31:10.196Z,47.03
2018-12-25T22:33:40.220Z,59.70
2018-12-25T22:36:13.516Z,36.37
2018-12-25T22:38:42.966Z,33.87
2018-12-25T22:41:14.440Z,30.87
2018-12-25T22:43:50.141Z,29.00
2018-12-25T22:46:19.630Z,31.23
2018-12-25T22:48:49.167Z,32.47
2018-12-25T22:51:30.670Z,27.07
2018-12-25T22:54:06.445Z,28.27
2018-12-25T22:56:36.938Z,29.53
2018-12-25T22:59:12.318Z,30.37
2018-12-25T23:01:42.939Z,28.67
2018-12-25T23:04:12.502Z,33.03
2018-12-25T23:06:42.058Z,27.83
2018-12-25T23:09:11.642Z,29.27
2018-12-25T23:11:42.144Z,33.50
2018-12-25T23:14:11.665Z,32.83
2018-12-25T23:16:53.265Z,33.40
2018-12-25T23:19:28.616Z,32.77
2018-12-25T23:22:05.378Z,33.37
2018-12-25T23:24:34.770Z,29.93
2018-12-25T23:27:04.221Z,32.83
2018-12-25T23:29:33.726Z,30.20
2018-12-25T23:32:03.458Z,32.20
2018-12-25T23:34:33.005Z,34.00
2018-12-25T23:37:10.025Z,35.27
2018-12-25T23:39:39.464Z,33.13
2018-12-25T23:42:09.924Z,35.40
2018-12-25T23:44:39.480Z,31.20
2018-12-25T23:47:10.443Z,35.83
2018-12-25T23:49:40.943Z,35.43
2018-12-25T23:52:18.717Z,33.03
2018-12-25T23:54:53.435Z,32.40
2018-12-25T23:57:24.116Z,35.13
2018-12-25T23:59:53.583Z,32.07
